• Join FlightAware (Why Join?)
  • Login
  • US Flag 
06:42PM EST


 

Airport Tracker/Info


-or-


 

Live Flight TrackerFlight Track Log ✈ FLG4099 ✈ 29-Apr-2013 ✈ KBTV - KDTW

Flight Track Log - Related Links

Times and Time Zones

All times are in EDT time to prevent confusion due to time zone crossing. See the FLG4099 flight status page for this flight to view local times or setup timezone preferences in your user account.

Time Position Orientation Groundspeed Altitude Reporting Facility
EDT Latitude Longitude Course Direction KTS MPH feet Rate Location/Type
07:06AM 44.3985 -73.5518 253° West  Level FlightAware Approximate
07:06AM 44.3911 -73.3494 255° West 254 292 8,100  Level Boston Center
07:07AM 44.3702 -73.6838 253° West  Level FlightAware Approximate
07:07AM 44.3756 -73.4536 258° West 274 315 11,000  Level Boston Center
07:08AM 44.3498 -73.8186 259° West  Level FlightAware Approximate
07:08AM 44.3578 -73.5753 258° West 296 341 12,400  Level Boston Center
07:09AM 44.3296 -73.9535 256° West  Level FlightAware Approximate
07:09AM 44.3378 -73.7028 258° West 330 380 14,100  Level Boston Center
07:10AM 44.3051 -74.0869 256° West  Level FlightAware Approximate
07:10AM 44.3175 -73.8386 258° West 344 396 15,600  Level Boston Center
07:11AM 44.2804 -74.2203 256° West  Level FlightAware Approximate
07:11AM 44.2969 -73.9772 258° West 361 415 17,200  Level Boston Center
07:12AM 44.2556 -74.3534 255° West  Level FlightAware Approximate
07:12AM 44.2742 -74.1131 257° West 361 415 18,800  Level Boston Center
07:13AM 44.2578 -74.2314 259° West 361 415 20,200 1,380 Climbing Boston Center
07:14AM 44.2347 -74.3669 257° West 361 415 21,600 1,200 Climbing Boston Center
07:15AM 44.2117 -74.5053 257° West 361 415 22,700 900 Climbing Boston Center
07:16AM 44.1900 -74.6522 258° West 373 429 23,400 660 Climbing Boston Center
07:17AM 44.1664 -74.7989 257° West 385 443 24,100 660 Climbing Boston Center
07:18AM 44.1422 -74.9483 257° West 392 451 24,800 660 Climbing Boston Center
07:19AM 44.1158 -75.1064 257° West 402 463 25,500 660 Climbing Boston Center
07:20AM 44.0911 -75.2644 258° West 417 480 26,200 660 Climbing Boston Center
07:21AM 44.0644 -75.4161 256° West 417 480 26,900 660 Climbing Boston Center
07:22AM 44.0372 -75.5739 257° West 417 480 27,600 600 Climbing Boston Center
07:23AM 44.0119 -75.7311 257° West 417 480 28,200 540 Climbing Boston Center
07:24AM 43.9867 -75.8858 257° West 417 480 28,700 480 Climbing Boston Center
07:25AM 43.9589 -76.0400 256° West 417 480 29,200 480 Climbing Boston Center
07:26AM 43.9517 -76.2011 266° West 412 474 29,700 360 Climbing Boston Center
07:27AM 43.9464 -76.3650 267° West 412 474 30,000 120 Climbing Boston Center
07:28AM 43.9450 -76.5236 269° West 417 480 30,000  Level Boston Center
07:30AM 43.9333 -76.7167 265° West 410 472 30,000  Level Toronto Center
07:31AM 43.9167 -76.8500 260° West 420 483 30,000  Level Toronto Center
07:32AM 43.9167 -77.0333 270° West 410 472 30,000  Level Toronto Center
07:33AM 43.9000 -77.1833 261° West 410 472 30,000  Level Toronto Center
07:34AM 43.9000 -77.3333 270° West 420 483 30,000  Level Toronto Center
07:35AM 43.9000 -77.5000 270° West 410 472 30,000  Level Toronto Center
07:36AM 43.9000 -77.6667 270° West 410 472 30,000  Level Toronto Center
07:37AM 43.8833 -77.8333 262° West 410 472 30,000  Level Toronto Center
07:38AM 43.8833 -77.9833 270° West 410 472 30,000  Level Toronto Center
07:39AM 43.8667 -78.1500 262° West 420 483 30,000  Level Toronto Center
07:40AM 43.8333 -78.3000 253° West 420 483 30,000  Level Toronto Center
07:41AM 43.7667 -78.4333 235° Southwest 420 483 30,000  Level Toronto Center
07:42AM 43.7167 -78.5667 243° Southwest 420 483 30,000  Level Toronto Center
07:43AM 43.6500 -78.7167 238° Southwest 420 483 30,000  Level Toronto Center
07:44AM 43.6000 -78.8500 243° Southwest 420 483 30,000  Level Toronto Center
07:45AM 43.5333 -78.9833 235° Southwest 420 483 30,000  Level Toronto Center
07:46AM 43.4833 -79.1333 245° Southwest 420 483 30,000  Level Toronto Center
07:47AM 43.4167 -79.2667 235° Southwest 420 483 30,000  Level Toronto Center
07:48AM 43.3500 -79.4000 236° Southwest 420 483 30,000  Level Toronto Center
07:49AM 43.3000 -79.5333 243° Southwest 420 483 30,000  Level Toronto Center
07:50AM 43.2333 -79.6833 239° Southwest 420 483 30,000  Level Toronto Center
07:51AM 43.1833 -79.8167 243° Southwest 420 483 30,000  Level Toronto Center
07:52AM 43.1167 -79.9500 236° Southwest 430 495 30,000 -300 Level Toronto Center
07:53AM 43.0500 -80.0833 236° Southwest 430 495 29,400 -1,260 Descending Toronto Center
07:54AM 42.9833 -80.2500 241° Southwest 430 495 27,500 -1,860 Descending Toronto Center
07:55AM 42.9333 -80.3833 243° Southwest 420 483 25,700 -1,800 Descending Toronto Center
07:56AM 42.8667 -80.5167 236° Southwest 420 483 23,900 -1,620 Descending Toronto Center
07:56AM 42.8353 -80.6058 244° Southwest 425 489 23,000 -540 Descending Cleveland Center
07:57AM 42.7706 -80.7558 240° Southwest 425 489 23,000  Level Cleveland Center
07:58AM 42.7078 -80.8911 238° Southwest 425 489 23,000  Level Cleveland Center
07:59AM 42.6886 -81.0436 260° West 420 483 23,000  Level Cleveland Center
08:00AM 42.6711 -81.2072 262° West 420 483 23,000  Level Cleveland Center
08:01AM 42.6514 -81.3594 260° West 430 495 23,000  Level Cleveland Center
08:02AM 42.6336 -81.5231 262° West 430 495 23,000  Level Cleveland Center
08:03AM 42.6156 -81.6778 261° West 424 488 23,000 -300 Level Cleveland Center
08:04AM 42.5953 -81.8186 259° West 429 494 22,400 -1,440 Descending Cleveland Center
08:05AM 42.5789 -81.9675 262° West 419 482 20,200 -2,160 Descending Cleveland Center
08:06AM 42.5606 -82.1081 260° West 407 468 18,100 -2,100 Descending Cleveland Center
08:07AM 42.5461 -82.2458 262° West 366 421 16,200 -2,100 Descending Cleveland Center
08:08AM 42.5389 -82.3106 261° West 365 420 15,300 -1,920 Descending Cleveland Center
08:08AM 42.5275 -82.3836 258° West 380 437 14,200 -1,920 Descending Cleveland Center
08:09AM 42.5222 -82.4453 263° West 365 420 13,400 -1,920 Descending Cleveland Center
08:09AM 42.5106 -82.5153 257° West 370 426 12,300 -1,500 Descending Cleveland Center
08:10AM 42.5014 -82.5631 255° West 356 410 12,100 -840 Descending Cleveland Center
08:10AM 42.4731 -82.6381 243° Southwest 365 420 11,500 -1,140 Descending Cleveland Center
08:11AM 42.4597 -82.6856 249° West 348 400 11,000 -1,140 Descending Cleveland Center
08:11AM 42.4378 -82.7467 244° Southwest 342 394 10,400 -1,020 Descending Cleveland Center
08:12AM 42.4308 -82.7858 257° West 278 320 10,000 -1,500 Descending Cleveland Center
08:13AM 42.4122 -82.8781 255° West 252 290 8,500 -1,500 Descending Cleveland Center
08:13AM 42.4047 -82.9453 261° West 280 322 7,500 -1,500 Descending Cleveland Center
08:14AM 42.3983 -83.0433 265° West 275 316 6,000 -1,500 Descending Cleveland Center
08:15AM 42.3900 -83.1444 264° West 275 316 4,500 -1,500 Descending Cleveland Center
08:16AM 42.3589 -83.2275 243° Southwest 261 300 3,100 -1,140 Descending Cleveland Center
08:17AM 42.3375 -83.2489 216° Southwest 212 244 3,000 -300 Descending Cleveland Center